Time;durP1;ratioP1;P1;durP2;ratioP2;P2;SDS_P1;SDS_P2;PMS_P1;PMS_P2;Temp;Humidity;BMP_temperature;BMP_pressure;BME280_temperature;BME280_humidity;BME280_pressure;Samples;Min_cycle;Max_cycle;Signal;HPM_P1;HPM_P2
2023/03/26 00:02:28;;;;;;;10.30;7.10;;;;;;;7.67;77.96;99239.33;103857;279;38317;-71
2023/03/26 00:05:03;;;;;;;11.10;7.10;;;;;;;7.65;77.92;99238.22;103816;279;38547;-74
2023/03/26 00:07:37;;;;;;;9.60;6.70;;;;;;;7.60;77.82;99238.78;103811;279;38544;-72
2023/03/26 00:10:14;;;;;;;7.10;6.00;;;;;;;7.52;77.66;99238.09;103771;279;40220;-71
2023/03/26 00:12:48;;;;;;;9.10;6.50;;;;;;;7.46;77.80;99237.69;103803;279;39126;-70
2023/03/26 00:15:22;;;;;;;8.40;6.10;;;;;;;7.41;77.99;99234.94;103797;268;38272;-72
2023/03/26 00:17:56;;;;;;;9.90;6.60;;;;;;;7.36;77.99;99231.15;103775;279;39316;-74
2023/03/26 00:20:31;;;;;;;8.20;6.30;;;;;;;7.29;77.94;99226.10;103824;268;39662;-72
2023/03/26 00:23:06;;;;;;;9.20;6.50;;;;;;;7.18;77.99;99229.32;103783;279;39934;-74
2023/03/26 00:25:42;;;;;;;9.20;6.50;;;;;;;7.09;78.25;99225.70;103762;279;39657;-72
2023/03/26 00:28:16;;;;;;;10.90;6.50;;;;;;;7.04;78.43;99228.20;103823;275;38275;-74
2023/03/26 00:30:50;;;;;;;9.90;5.80;;;;;;;6.99;78.56;99219.20;103812;275;38349;-74
2023/03/26 00:33:24;;;;;;;8.90;6.50;;;;;;;6.96;78.63;99218.98;103831;279;38527;-72
2023/03/26 00:35:59;;;;;;;9.60;6.30;;;;;;;6.95;78.83;99218.34;103773;279;38509;-71
2023/03/26 00:38:37;;;;;;;8.90;6.70;;;;;;;6.88;78.78;99217.05;103162;267;909758;-74
2023/03/26 00:41:21;;;;;;;10.30;6.30;;;;;;;6.82;78.91;99217.64;103807;279;38736;-71
2023/03/26 00:43:56;;;;;;;9.10;5.90;;;;;;;6.77;78.97;99213.69;103784;279;39615;-71
2023/03/26 00:46:32;;;;;;;9.60;6.30;;;;;;;6.76;79.30;99212.70;103756;279;38824;-71
2023/03/26 00:49:09;;;;;;;10.20;7.00;;;;;;;6.75;79.35;99208.77;103812;279;39361;-72
2023/03/26 00:51:43;;;;;;;9.00;6.40;;;;;;;6.77;79.49;99214.23;103783;279;38658;-72
2023/03/26 00:54:17;;;;;;;15.20;9.10;;;;;;;6.79;79.65;99213.27;103802;279;40241;-71
2023/03/26 00:56:54;;;;;;;17.20;10.10;;;;;;;6.82;79.74;99213.67;103813;279;38590;-71
2023/03/26 00:59:29;;;;;;;14.10;8.80;;;;;;;6.87;79.72;99213.30;103761;279;38452;-73
2023/03/26 01:02:04;;;;;;;23.90;13.60;;;;;;;6.89;79.71;99211.77;103675;279;175559;-72
2023/03/26 01:04:38;;;;;;;19.90;11.00;;;;;;;6.92;79.71;99210.11;103807;279;39650;-71
2023/03/26 01:07:20;;;;;;;15.80;9.10;;;;;;;6.94;79.58;99213.51;103773;279;38525;-71
2023/03/26 01:09:55;;;;;;;21.20;11.20;;;;;;;6.95;79.61;99211.02;103738;279;38701;-73
2023/03/26 01:12:31;;;;;;;11.90;8.20;;;;;;;6.99;79.66;99211.55;103645;279;175565;-69
2023/03/26 01:15:08;;;;;;;12.10;7.50;;;;;;;7.02;79.67;99210.39;103736;279;38576;-71
2023/03/26 01:17:42;;;;;;;10.90;7.30;;;;;;;7.04;79.60;99206.48;103803;279;38881;-70
2023/03/26 01:20:19;;;;;;;8.20;5.40;;;;;;;7.07;79.61;99204.48;103741;279;38759;-71
2023/03/26 01:22:55;;;;;;;7.70;5.50;;;;;;;7.06;79.41;99201.02;103799;279;38396;-71
2023/03/26 01:25:29;;;;;;;10.90;6.70;;;;;;;7.07;79.36;99200.84;103584;279;39387;-71
2023/03/26 01:28:04;;;;;;;7.10;5.40;;;;;;;7.09;79.43;99196.43;103751;279;39065;-73
2023/03/26 01:30:42;;;;;;;7.90;5.70;;;;;;;7.10;79.33;99196.20;103764;279;39829;-73
2023/03/26 01:33:21;;;;;;;7.40;5.30;;;;;;;7.11;79.36;99193.54;103768;279;39986;-69
2023/03/26 01:35:58;;;;;;;8.70;5.70;;;;;;;7.12;79.22;99188.45;103771;279;39990;-69
2023/03/26 01:38:36;;;;;;;6.80;5.00;;;;;;;7.11;79.21;99186.61;103755;279;39822;-73
2023/03/26 01:41:12;;;;;;;10.00;5.40;;;;;;;7.10;79.25;99181.63;103731;279;39422;-71
2023/03/26 01:43:49;;;;;;;6.70;4.90;;;;;;;7.09;79.24;99182.36;103747;279;38350;-69
2023/03/26 01:46:24;;;;;;;5.50;4.50;;;;;;;7.08;79.29;99173.05;103766;291;38458;-71
2023/03/26 01:48:58;;;;;;;7.50;5.10;;;;;;;7.08;79.25;99174.07;103800;279;38795;-70
2023/03/26 01:51:34;;;;;;;6.40;4.90;;;;;;;7.09;79.20;99171.27;103774;279;39960;-72
2023/03/26 01:54:11;;;;;;;6.10;5.10;;;;;;;7.09;79.22;99171.25;103834;279;37908;-73
2023/03/26 01:56:55;;;;;;;7.90;5.60;;;;;;;7.08;79.31;99169.59;103811;279;38506;-73
2023/03/26 01:59:52;;;;;;;8.00;5.20;;;;;;;7.07;79.36;99170.48;103847;279;38230;-71
2023/03/26 02:02:32;;;;;;;5.90;4.20;;;;;;;7.06;79.36;99165.50;103785;279;38688;-71
2023/03/26 02:05:12;;;;;;;10.70;5.50;;;;;;;7.07;79.37;99161.63;103813;279;38576;-70
2023/03/26 02:07:49;;;;;;;6.60;4.40;;;;;;;7.09;79.49;99160.16;103789;279;38234;-70
2023/03/26 02:10:26;;;;;;;5.80;4.50;;;;;;;7.10;79.44;99157.52;103613;281;38769;-71
2023/03/26 02:13:01;;;;;;;6.40;5.00;;;;;;;7.08;79.44;99151.16;103840;279;38602;-71
2023/03/26 02:15:35;;;;;;;8.70;4.90;;;;;;;7.07;79.39;99150.05;103785;267;38485;-70
2023/03/26 02:18:09;;;;;;;6.90;4.40;;;;;;;7.05;79.41;99149.95;103200;279;909772;-71
2023/03/26 02:20:45;;;;;;;6.50;4.70;;;;;;;7.02;79.35;99146.25;103778;279;38516;-70
2023/03/26 02:23:19;;;;;;;4.80;4.10;;;;;;;7.00;79.48;99142.19;103812;279;38244;-71
2023/03/26 02:25:53;;;;;;;7.60;4.30;;;;;;;6.99;79.61;99135.95;103782;279;39717;-72
2023/03/26 02:28:28;;;;;;;6.00;4.00;;;;;;;6.98;79.57;99138.97;103758;279;175514;-71
2023/03/26 02:31:02;;;;;;;7.10;4.50;;;;;;;6.96;79.55;99138.88;103778;279;39429;-71
2023/03/26 02:33:36;;;;;;;6.40;4.40;;;;;;;6.91;79.36;99137.68;103498;279;175486;-73
2023/03/26 02:36:12;;;;;;;6.80;4.20;;;;;;;6.84;79.38;99141.48;103629;279;40104;-74
2023/03/26 02:38:46;;;;;;;6.20;4.50;;;;;;;6.76;79.42;99143.02;103681;279;38827;-72
2023/03/26 02:41:21;;;;;;;6.60;4.50;;;;;;;6.70;79.56;99141.17;103816;279;38963;-71
2023/03/26 02:43:55;;;;;;;7.30;4.30;;;;;;;6.66;79.72;99139.60;103799;279;38089;-70
2023/03/26 02:46:29;;;;;;;6.00;4.10;;;;;;;6.63;79.89;99141.11;103780;279;38235;-71
2023/03/26 02:49:03;;;;;;;7.10;4.30;;;;;;;6.61;80.05;99140.16;103799;279;38477;-75
2023/03/26 02:51:37;;;;;;;5.00;3.90;;;;;;;6.61;80.37;99137.05;103808;279;39658;-74
2023/03/26 02:54:11;;;;;;;7.10;4.40;;;;;;;6.63;80.62;99136.80;103809;279;39411;-72
2023/03/26 02:56:45;;;;;;;6.40;3.70;;;;;;;6.65;80.75;99134.80;103756;279;38344;-73
2023/03/26 02:59:19;;;;;;;5.40;4.10;;;;;;;6.69;80.89;99135.86;103838;279;39447;-72
2023/03/26 03:01:54;;;;;;;6.00;4.20;;;;;;;6.72;80.99;99135.39;103794;279;38527;-72
2023/03/26 03:04:28;;;;;;;5.20;3.70;;;;;;;6.75;80.95;99132.84;103797;279;39419;-72
2023/03/26 03:07:02;;;;;;;6.60;4.10;;;;;;;6.77;80.99;99132.60;103802;279;38177;-72
2023/03/26 03:09:36;;;;;;;6.70;4.20;;;;;;;6.80;81.01;99138.88;103842;279;38266;-72
2023/03/26 03:12:13;;;;;;;6.80;4.00;;;;;;;6.82;81.12;99138.41;103572;279;38237;-73
2023/03/26 03:14:47;;;;;;;5.80;4.30;;;;;;;6.85;81.22;99140.74;103777;279;38265;-75
2023/03/26 03:17:21;;;;;;;5.30;3.50;;;;;;;6.89;81.07;99142.63;103701;279;176465;-72
2023/03/26 03:19:55;;;;;;;7.20;4.30;;;;;;;6.93;81.21;99143.15;103763;279;38830;-70
2023/03/26 03:22:29;;;;;;;6.80;3.80;;;;;;;6.97;81.06;99137.08;103824;279;39448;-73
2023/03/26 03:25:03;;;;;;;5.70;4.10;;;;;;;7.01;81.01;99139.02;103800;279;39981;-72
2023/03/26 03:27:38;;;;;;;5.90;4.40;;;;;;;7.02;80.89;99139.81;103803;279;38279;-75
2023/03/26 03:30:13;;;;;;;5.70;3.70;;;;;;;7.05;80.80;99143.88;103799;279;39112;-74
2023/03/26 03:32:47;;;;;;;6.20;3.30;;;;;;;7.07;80.79;99144.61;103822;279;38890;-71
2023/03/26 03:35:21;;;;;;;6.50;3.90;;;;;;;7.11;80.60;99147.92;103156;279;910721;-71
2023/03/26 03:37:56;;;;;;;6.60;3.90;;;;;;;7.14;80.54;99141.58;103788;279;38544;-73
2023/03/26 03:40:30;;;;;;;5.10;3.90;;;;;;;7.14;80.35;99141.21;103808;278;38529;-73
2023/03/26 03:43:04;;;;;;;5.60;4.10;;;;;;;7.13;80.30;99141.43;103797;279;39988;-71
2023/03/26 03:45:38;;;;;;;5.60;4.10;;;;;;;7.12;80.21;99141.15;103832;279;38516;-71
2023/03/26 03:48:12;;;;;;;5.90;4.10;;;;;;;7.09;80.24;99142.14;103824;279;39651;-72
2023/03/26 03:50:46;;;;;;;5.10;3.70;;;;;;;7.08;80.29;99142.84;103788;279;39705;-72
2023/03/26 03:53:20;;;;;;;8.10;4.20;;;;;;;7.09;80.32;99145.59;103821;279;39890;-69
2023/03/26 03:55:54;;;;;;;6.70;3.90;;;;;;;7.10;80.43;99145.19;103792;279;38354;-69
2023/03/26 03:58:29;;;;;;;7.40;3.90;;;;;;;7.10;80.39;99145.55;103813;279;39941;-71
2023/03/26 04:01:03;;;;;;;6.20;4.10;;;;;;;7.09;80.27;99148.00;103821;278;38820;-71
2023/03/26 04:03:38;;;;;;;6.50;3.60;;;;;;;7.08;80.39;99146.16;103811;278;39742;-71
2023/03/26 04:06:12;;;;;;;4.70;3.30;;;;;;;7.08;80.50;99144.23;103781;278;38956;-72
2023/03/26 04:08:46;;;;;;;4.80;3.20;;;;;;;7.09;80.51;99144.21;103844;278;38452;-69
2023/03/26 04:11:20;;;;;;;4.70;3.10;;;;;;;7.11;80.51;99142.89;103784;278;38494;-72
2023/03/26 04:13:54;;;;;;;4.50;3.40;;;;;;;7.13;80.49;99141.05;103842;278;38954;-75
2023/03/26 04:16:29;;;;;;;7.60;3.60;;;;;;;7.14;80.40;99139.30;103803;278;39460;-74
2023/03/26 04:19:04;;;;;;;6.00;3.00;;;;;;;7.12;80.28;99132.64;103828;278;38275;-74
2023/03/26 04:21:38;;;;;;;4.60;3.10;;;;;;;7.09;80.25;99131.71;103807;278;38480;-74
2023/03/26 04:24:12;;;;;;;5.40;3.10;;;;;;;7.07;80.25;99132.34;103729;279;39480;-72
2023/03/26 04:26:48;;;;;;;5.60;3.20;;;;;;;7.05;80.31;99127.23;103841;278;38537;-74
2023/03/26 04:29:26;;;;;;;6.40;3.20;;;;;;;7.06;80.38;99126.65;103709;278;38269;-71
2023/03/26 04:32:05;;;;;;;6.20;3.30;;;;;;;7.09;80.43;99126.34;103810;278;39606;-72
2023/03/26 04:34:39;;;;;;;6.50;3.70;;;;;;;7.12;80.40;99129.52;103847;278;39986;-74
2023/03/26 04:37:20;;;;;;;8.50;4.80;;;;;;;7.12;80.41;99128.64;103820;278;38986;-72
2023/03/26 04:39:55;;;;;;;8.40;4.90;;;;;;;7.13;80.22;99127.03;103841;278;38379;-74
2023/03/26 04:42:29;;;;;;;8.00;4.40;;;;;;;7.16;80.34;99129.35;103837;278;38656;-72
2023/03/26 04:45:04;;;;;;;15.00;4.50;;;;;;;7.18;80.31;99128.70;103691;268;38340;-73
2023/03/26 04:47:38;;;;;;;7.00;4.10;;;;;;;7.21;80.35;99128.62;103816;278;38275;-72
2023/03/26 04:50:14;;;;;;;6.00;3.60;;;;;;;7.21;80.60;99125.98;103779;278;38269;-75
2023/03/26 04:52:48;;;;;;;6.90;3.60;;;;;;;7.22;80.69;99126.42;103849;278;38411;-72
2023/03/26 04:55:26;;;;;;;6.30;3.70;;;;;;;7.25;80.88;99127.90;103877;278;39238;-71
2023/03/26 04:58:02;;;;;;;7.50;4.10;;;;;;;7.25;80.94;99127.39;103787;278;38947;-72
2023/03/26 05:00:36;;;;;;;6.60;3.80;;;;;;;7.25;80.88;99127.89;103824;278;38269;-71
2023/03/26 05:03:14;;;;;;;4.70;3.10;;;;;;;7.26;80.97;99125.11;103801;278;38505;-71
2023/03/26 05:05:48;;;;;;;6.60;3.30;;;;;;;7.27;80.95;99123.84;103842;278;38720;-71
2023/03/26 05:08:22;;;;;;;7.20;4.20;;;;;;;7.28;80.92;99128.29;103845;278;39641;-74
2023/03/26 05:10:56;;;;;;;5.70;3.40;;;;;;;7.32;80.85;99128.65;103818;278;39913;-73
2023/03/26 05:13:31;;;;;;;5.00;3.70;;;;;;;7.35;80.94;99124.01;103814;266;39491;-73
2023/03/26 05:16:05;;;;;;;5.40;3.40;;;;;;;7.38;80.81;99121.59;103822;278;38801;-72
2023/03/26 05:18:39;;;;;;;5.40;3.60;;;;;;;7.41;80.86;99120.61;103838;278;39799;-69
2023/03/26 05:21:13;;;;;;;5.60;3.40;;;;;;;7.44;80.74;99120.77;103826;278;38471;-72
2023/03/26 05:23:47;;;;;;;6.30;4.10;;;;;;;7.49;80.69;99127.14;103721;268;39743;-70
2023/03/26 05:26:21;;;;;;;5.40;4.00;;;;;;;7.53;80.62;99125.94;103791;278;39899;-72
2023/03/26 05:28:55;;;;;;;6.30;4.40;;;;;;;7.57;80.51;99123.70;103855;278;38247;-72
2023/03/26 05:31:30;;;;;;;6.10;4.40;;;;;;;7.60;80.31;99123.75;103807;278;39404;-72
2023/03/26 05:34:05;;;;;;;7.90;3.90;;;;;;;7.62;80.26;99120.70;103849;278;38784;-72
2023/03/26 05:36:39;;;;;;;5.00;3.30;;;;;;;7.65;80.06;99122.60;103800;278;39507;-71
2023/03/26 05:39:14;;;;;;;6.10;4.70;;;;;;;7.70;79.95;99121.01;103853;278;38767;-75
2023/03/26 05:41:48;;;;;;;8.20;4.40;;;;;;;7.75;79.91;99121.98;103801;278;39433;-74
2023/03/26 05:44:22;;;;;;;8.30;3.70;;;;;;;7.80;79.76;99119.00;103849;278;39427;-72
2023/03/26 05:46:58;;;;;;;6.70;3.60;;;;;;;7.84;79.77;99117.42;103823;278;39645;-72
2023/03/26 05:49:35;;;;;;;6.80;3.80;;;;;;;7.86;79.65;99112.75;103754;278;172329;-73
2023/03/26 05:52:17;;;;;;;9.80;3.70;;;;;;;7.91;79.54;99114.26;103841;277;38283;-72
2023/03/26 05:54:54;;;;;;;5.60;3.50;;;;;;;7.97;79.27;99117.31;103803;278;38561;-72
2023/03/26 05:57:31;;;;;;;7.00;4.10;;;;;;;8.01;79.27;99111.39;103866;277;39421;-70
2023/03/26 06:00:07;;;;;;;7.60;3.80;;;;;;;8.07;79.03;99117.20;103367;277;665684;-72
2023/03/26 06:02:42;;;;;;;7.00;3.90;;;;;;;8.12;78.81;99114.71;103846;278;38249;-72
2023/03/26 06:05:25;;;;;;;6.40;3.70;;;;;;;8.13;78.57;99113.79;103798;279;38311;-70
2023/03/26 06:07:59;;;;;;;6.20;4.00;;;;;;;8.17;78.46;99114.96;103768;279;39643;-73
2023/03/26 06:10:33;;;;;;;5.20;3.30;;;;;;;8.20;78.08;99116.21;103836;277;38922;-74
2023/03/26 06:13:07;;;;;;;5.10;3.10;;;;;;;8.25;78.07;99118.74;103832;277;38798;-73
2023/03/26 06:15:41;;;;;;;4.90;3.00;;;;;;;8.32;78.12;99116.34;103812;277;38478;-72
2023/03/26 06:18:19;;;;;;;4.60;3.40;;;;;;;8.39;77.86;99122.09;103876;277;38803;-79
2023/03/26 06:20:56;;;;;;;8.30;3.50;;;;;;;8.43;77.58;99121.52;103633;278;189063;-75
2023/03/26 06:23:30;;;;;;;5.80;3.30;;;;;;;8.49;77.38;99121.73;103879;277;38270;-75
2023/03/26 06:26:05;;;;;;;6.30;3.20;;;;;;;8.54;77.03;99123.60;103856;278;38446;-74
2023/03/26 06:28:40;;;;;;;5.80;3.30;;;;;;;8.58;76.91;99126.02;103845;278;38334;-75
2023/03/26 06:31:16;;;;;;;6.20;3.30;;;;;;;8.61;76.68;99124.31;103827;278;38801;-75
2023/03/26 06:33:53;;;;;;;5.10;3.40;;;;;;;8.62;76.72;99125.63;103812;278;38850;-75
2023/03/26 06:36:28;;;;;;;5.40;3.10;;;;;;;8.64;76.78;99127.96;103785;278;39507;-74
2023/03/26 06:39:02;;;;;;;6.10;3.00;;;;;;;8.65;76.85;99129.68;103886;278;38537;-74
2023/03/26 06:41:40;;;;;;;6.50;3.80;;;;;;;8.63;76.99;99129.58;103850;278;39423;-75
2023/03/26 06:44:14;;;;;;;5.70;3.10;;;;;;;8.61;77.21;99130.03;103794;278;38585;-74
2023/03/26 06:46:49;;;;;;;4.90;3.10;;;;;;;8.65;77.81;99131.61;103871;278;38519;-73
2023/03/26 06:49:34;;;;;;;4.90;3.50;;;;;;;8.71;77.89;99131.60;103894;278;39814;-74
2023/03/26 06:52:10;;;;;;;3.80;3.00;;;;;;;8.75;77.97;99131.73;103814;278;38321;-74
2023/03/26 06:54:45;;;;;;;4.20;3.00;;;;;;;8.83;78.28;99130.02;103853;266;38288;-75
2023/03/26 06:57:19;;;;;;;4.50;2.90;;;;;;;8.88;78.44;99131.29;103826;278;38500;-72
2023/03/26 06:59:54;;;;;;;4.20;3.00;;;;;;;8.95;78.79;99130.92;103839;278;38956;-74
2023/03/26 07:02:28;;;;;;;4.30;3.30;;;;;;;9.11;79.07;99128.16;103652;278;172347;-73
2023/03/26 07:05:05;;;;;;;5.10;3.40;;;;;;;9.32;79.11;99127.96;103797;278;38741;-75
2023/03/26 07:07:39;;;;;;;4.00;3.10;;;;;;;9.51;79.12;99121.37;103807;279;38318;-75
2023/03/26 07:10:13;;;;;;;3.50;2.80;;;;;;;9.73;79.11;99116.70;103782;279;39670;-75
2023/03/26 07:12:47;;;;;;;4.80;3.10;;;;;;;9.93;78.73;99115.45;103818;279;39955;-74
2023/03/26 07:15:22;;;;;;;3.90;3.00;;;;;;;10.13;79.03;99116.75;103815;279;39414;-73
2023/03/26 07:17:56;;;;;;;4.40;2.40;;;;;;;10.44;78.46;99119.19;103807;279;38820;-75
2023/03/26 07:20:31;;;;;;;5.00;2.80;;;;;;;10.84;77.94;99112.38;103795;278;38760;-75
2023/03/26 07:23:07;;;;;;;5.10;2.70;;;;;;;11.12;75.78;99111.89;103675;278;39678;-73
2023/03/26 07:25:46;;;;;;;4.80;2.40;;;;;;;11.28;74.82;99111.95;103806;278;38819;-73
2023/03/26 07:28:29;;;;;;;4.20;2.40;;;;;;;11.44;73.93;99113.98;103846;278;38280;-75
2023/03/26 07:31:21;;;;;;;2.70;2.10;;;;;;;11.44;72.40;99116.40;103824;278;39427;-74
2023/03/26 07:34:00;;;;;;;4.90;2.70;;;;;;;11.32;71.63;99113.45;103826;278;39711;-74
2023/03/26 07:36:37;;;;;;;3.70;2.30;;;;;;;11.17;71.82;99113.84;103715;278;177015;-75
2023/03/26 07:39:26;;;;;;;3.80;2.60;;;;;;;11.02;71.57;99115.44;103821;278;39956;-72
2023/03/26 07:42:01;;;;;;;;;;;;;;;10.82;71.39;99114.71;103858;278;38475;-72
2023/03/26 07:44:51;;;;;;;4.50;2.80;;;;;;;10.57;71.46;99108.15;103838;278;38229;-75
2023/03/26 07:47:30;;;;;;;3.80;2.20;;;;;;;10.37;71.53;99106.20;103849;278;39496;-73
2023/03/26 07:50:06;;;;;;;3.40;2.00;;;;;;;10.19;71.77;99104.90;103191;278;905075;-75
2023/03/26 07:52:43;;;;;;;3.00;2.00;;;;;;;10.07;72.17;99106.97;103705;278;39993;-73
2023/03/26 07:55:25;;;;;;;4.30;2.50;;;;;;;9.97;72.30;99107.39;103678;280;38248;-74
2023/03/26 07:58:11;;;;;;;4.00;2.20;;;;;;;9.89;72.64;99105.73;103811;278;38257;-75
2023/03/26 08:00:52;;;;;;;4.50;2.40;;;;;;;9.85;72.92;99099.52;103817;278;38272;-75
2023/03/26 08:03:51;;;;;;;5.20;2.40;;;;;;;9.81;73.12;99095.70;103835;278;39485;-75
2023/03/26 08:06:31;;;;;;;3.80;2.20;;;;;;;9.81;73.51;99095.88;103835;278;38539;-75
2023/03/26 08:09:13;;;;;;;5.50;3.10;;;;;;;9.97;74.02;99095.70;103766;278;38628;-74
2023/03/26 08:11:54;;;;;;;3.80;2.20;;;;;;;10.21;73.97;99091.94;103842;278;38236;-73
2023/03/26 08:14:50;;;;;;;3.70;2.40;;;;;;;10.39;73.00;99089.89;103849;278;39673;-73
2023/03/26 08:17:31;;;;;;;5.00;2.50;;;;;;;10.44;72.03;99090.27;103808;278;38918;-73
2023/03/26 08:20:16;;;;;;;3.80;2.50;;;;;;;10.40;70.89;99092.27;103818;278;38274;-72
2023/03/26 08:22:51;;;;;;;4.50;2.80;;;;;;;10.26;70.64;99090.39;103815;278;38419;-73
2023/03/26 08:25:32;;;;;;;2.20;1.80;;;;;;;10.14;70.56;99086.01;103869;278;38377;-73
2023/03/26 08:28:34;;;;;;;2.60;2.00;;;;;;;9.98;69.73;99087.96;103846;278;40020;-75
2023/03/26 08:31:11;;;;;;;2.90;2.00;;;;;;;9.85;70.15;99090.27;103859;278;38468;-74
2023/03/26 08:33:45;;;;;;;4.00;2.30;;;;;;;9.82;70.60;99087.32;103842;278;38405;-73
2023/03/26 08:36:20;;;;;;;2.50;2.00;;;;;;;9.82;70.88;99084.50;103801;278;38511;-72
2023/03/26 08:38:58;;;;;;;2.90;2.10;;;;;;;9.82;70.60;99080.98;103818;278;38367;-75
2023/03/26 08:42:11;;;;;;;3.10;2.20;;;;;;;9.87;71.21;99083.02;103814;278;38236;-75
2023/03/26 08:45:35;;;;;;;3.70;2.40;;;;;;;9.96;71.42;99083.92;103781;278;38788;-74
2023/03/26 08:48:49;;;;;;;3.40;2.20;;;;;;;10.01;71.43;99086.05;103829;278;38276;-72
2023/03/26 08:52:13;;;;;;;4.80;2.20;;;;;;;10.08;71.54;99086.03;103706;278;39685;-72
2023/03/26 08:55:12;;;;;;;4.30;2.10;;;;;;;10.14;71.62;99089.71;103658;282;40151;-73
2023/03/26 08:58:30;;;;;;;3.10;2.10;;;;;;;10.21;71.65;99087.91;103808;278;40102;-73
2023/03/26 09:01:26;;;;;;;3.40;2.50;;;;;;;10.42;71.90;99083.38;103810;278;38252;-72
2023/03/26 09:04:25;;;;;;;3.10;2.50;;;;;;;11.03;73.29;99083.49;103583;278;39659;-73
2023/03/26 09:07:42;;;;;;;3.20;2.50;;;;;;;11.86;71.39;99079.18;103702;278;174939;-73
2023/03/26 09:10:48;;;;;;;4.50;2.10;;;;;;;12.72;71.46;99071.94;103651;278;39008;-73
2023/03/26 09:14:10;;;;;;;3.00;2.20;;;;;;;13.62;68.42;99072.80;103839;278;38674;-71
2023/03/26 09:21:14;;;;;;;3.70;2.20;;;;;;;13.46;65.03;99067.05;101889;305;546151;-76
2023/03/26 09:24:41;;;;;;;3.80;2.30;;;;;;;13.07;64.32;99068.00;103302;285;38952;-75
2023/03/26 09:27:36;;;;;;;3.40;2.10;;;;;;;12.73;65.01;99063.86;103309;285;38243;-75
2023/03/26 09:30:54;;;;;;;4.10;2.60;;;;;;;12.50;65.15;99067.86;103319;284;38818;-75
2023/03/26 09:34:16;;;;;;;3.70;2.50;;;;;;;12.25;65.50;99065.65;102842;284;661001;-76
2023/03/26 09:37:17;;;;;;;4.10;2.50;;;;;;;12.09;66.06;99065.61;103227;284;39472;-73
2023/03/26 09:40:13;;;;;;;2.90;2.60;;;;;;;11.97;65.76;99067.13;103415;284;38647;-74
2023/03/26 09:42:53;;;;;;;3.80;2.50;;;;;;;11.69;64.91;99066.77;103330;284;39712;-73
2023/03/26 09:45:52;;;;;;;3.90;2.50;;;;;;;11.52;65.51;99074.16;103413;284;39783;-73
2023/03/26 09:48:56;;;;;;;3.40;2.40;;;;;;;11.48;66.14;99074.60;103380;284;38973;-74
2023/03/26 09:52:03;;;;;;;2.60;2.40;;;;;;;11.42;66.05;99072.17;103482;283;38240;-76
2023/03/26 09:55:41;;;;;;;3.80;2.70;;;;;;;11.49;66.26;99067.55;103454;283;38550;-72
2023/03/26 09:58:57;;;;;;;2.30;2.00;;;;;;;11.69;65.85;99057.71;103581;282;38249;-70
2023/03/26 10:01:42;;;;;;;2.50;2.30;;;;;;;11.73;65.06;99055.91;103582;282;39224;-73
2023/03/26 10:05:04;;;;;;;2.50;1.90;;;;;;;11.79;65.25;99057.62;103555;283;38249;-74
2023/03/26 10:07:52;;;;;;;2.70;1.50;;;;;;;11.79;64.39;99067.91;103264;281;38734;-76
2023/03/26 10:10:32;;;;;;;3.20;1.60;;;;;;;11.68;63.81;99071.75;103640;281;38394;-72
2023/03/26 10:13:12;;;;;;;1.60;1.40;;;;;;;11.80;65.24;99072.41;103623;281;38249;-78
2023/03/26 10:15:59;;;;;;;1.60;1.50;;;;;;;11.97;65.13;99064.73;103439;281;38245;-75
2023/03/26 10:18:50;;;;;;;2.70;1.60;;;;;;;12.07;64.95;99063.48;103705;280;38260;-71
2023/03/26 10:21:29;;;;;;;3.10;1.50;;;;;;;12.32;65.52;99055.41;103760;279;39414;-71
2023/03/26 10:24:20;;;;;;;2.90;2.10;;;;;;;12.61;64.88;99051.72;103784;279;39661;-74
2023/03/26 10:27:22;;;;;;;2.90;1.70;;;;;;;12.90;64.73;99042.39;103642;279;38276;-74
2023/03/26 10:30:46;;;;;;;2.00;1.50;;;;;;;13.12;63.33;99043.52;103834;279;38282;-72
2023/03/26 10:33:30;;;;;;;3.10;1.80;;;;;;;13.26;62.58;99035.20;103742;279;38986;-75
2023/03/26 10:36:21;;;;;;;2.10;1.60;;;;;;;13.37;61.88;99034.61;103748;279;38771;-75
2023/03/26 10:39:21;;;;;;;2.60;1.60;;;;;;;13.42;61.22;99036.70;103708;279;38327;-73
2023/03/26 10:42:10;;;;;;;1.90;1.50;;;;;;;13.30;59.87;99039.52;103722;279;38283;-73
2023/03/26 10:45:14;;;;;;;2.90;1.70;;;;;;;12.94;58.88;99049.48;103544;279;174842;-71
2023/03/26 10:48:15;;;;;;;1.30;1.10;;;;;;;12.44;60.09;99053.04;103707;279;39570;-71
2023/03/26 10:51:14;;;;;;;2.50;1.10;;;;;;;12.27;62.09;99050.86;103681;279;38494;-73
2023/03/26 10:53:57;;;;;;;2.60;1.50;;;;;;;12.41;64.01;99048.50;103733;268;38989;-73
2023/03/26 10:56:35;;;;;;;2.60;1.40;;;;;;;12.45;63.53;99041.60;103749;279;38732;-76
2023/03/26 10:59:13;;;;;;;2.50;1.40;;;;;;;12.52;64.15;99042.02;103597;279;38228;-73
2023/03/26 11:01:58;;;;;;;1.70;1.20;;;;;;;12.73;64.70;99036.41;103688;279;38512;-74
2023/03/26 11:04:41;;;;;;;2.40;1.30;;;;;;;12.91;64.82;99028.65;103539;280;175160;-73
2023/03/26 11:07:25;;;;;;;2.80;1.30;;;;;;;13.08;64.64;99025.06;103761;279;38548;-73
2023/03/26 11:10:05;;;;;;;1.70;1.50;;;;;;;13.22;61.11;99024.09;103789;279;38501;-72
2023/03/26 11:12:44;;;;;;;1.70;1.50;;;;;;;13.25;61.23;99026.02;103173;279;902139;-73
2023/03/26 11:15:30;;;;;;;2.40;1.30;;;;;;;13.25;61.10;99025.81;103757;279;39421;-75
2023/03/26 11:18:12;;;;;;;2.00;1.60;;;;;;;13.19;60.28;99027.41;103800;279;39460;-73
2023/03/26 11:20:53;;;;;;;2.50;1.50;;;;;;;13.01;59.52;99030.08;103644;279;38819;-74
2023/03/26 11:23:38;;;;;;;1.70;1.50;;;;;;;12.80;59.79;99037.97;103827;279;38500;-73
2023/03/26 11:26:20;;;;;;;2.10;1.60;;;;;;;12.63;60.01;99040.55;103809;279;39444;-75
2023/03/26 11:29:29;;;;;;;1.80;1.60;;;;;;;12.48;60.24;99039.65;103876;277;38953;-73
2023/03/26 11:32:10;;;;;;;3.40;1.90;;;;;;;12.32;60.20;99037.18;103895;278;38215;-75
2023/03/26 11:34:49;;;;;;;1.50;1.30;;;;;;;12.21;60.45;99041.80;103771;278;39551;-74
2023/03/26 11:37:27;;;;;;;1.50;1.20;;;;;;;12.11;60.29;99047.00;103911;277;39285;-73
2023/03/26 11:40:10;;;;;;;2.00;1.20;;;;;;;12.02;60.35;99042.86;103860;277;39461;-74
2023/03/26 11:42:45;;;;;;;1.90;1.40;;;;;;;12.01;60.12;99041.52;103674;277;38388;-73
2023/03/26 11:45:22;;;;;;;2.80;1.60;;;;;;;12.08;60.52;99043.55;103750;278;38265;-72
2023/03/26 11:47:59;;;;;;;2.00;1.40;;;;;;;12.28;60.67;99035.55;103840;278;39290;-71
2023/03/26 11:50:39;;;;;;;2.50;1.30;;;;;;;12.46;60.46;99035.44;104102;276;38343;-70
2023/03/26 11:53:19;;;;;;;1.20;1.10;;;;;;;12.54;59.50;99034.16;104053;276;38250;-71
2023/03/26 11:55:59;;;;;;;2.10;1.30;;;;;;;12.49;58.12;99053.78;104090;276;39654;-74
2023/03/26 11:58:43;;;;;;;1.60;1.30;;;;;;;12.37;58.37;99061.56;104187;276;38263;-75
2023/03/26 12:01:42;;;;;;;1.80;1.00;;;;;;;12.20;59.54;99053.39;104120;276;38272;-74
2023/03/26 12:04:33;;;;;;;2.50;1.70;;;;;;;12.05;60.83;99057.38;104079;276;38297;-75
2023/03/26 12:07:34;;;;;;;2.60;1.40;;;;;;;11.93;61.92;99054.83;104073;276;38907;-72
2023/03/26 12:10:22;;;;;;;5.70;3.10;;;;;;;11.81;62.76;99053.84;104118;275;38390;-74
2023/03/26 12:13:01;;;;;;;5.10;3.10;;;;;;;11.82;63.41;99052.34;103928;276;38969;-73
2023/03/26 12:15:42;;;;;;;2.80;2.10;;;;;;;11.89;63.53;99051.41;103808;276;38556;-74
2023/03/26 12:18:28;;;;;;;2.90;2.10;;;;;;;11.83;63.26;99050.53;103969;276;38524;-74
2023/03/26 12:21:14;;;;;;;2.80;2.10;;;;;;;11.74;63.36;99049.70;104129;278;38999;-73
2023/03/26 12:24:00;;;;;;;3.10;1.90;;;;;;;11.72;63.74;99051.06;104158;276;39335;-73
2023/03/26 12:26:43;;;;;;;3.00;1.70;;;;;;;11.76;63.86;99043.81;103975;276;38384;-74
2023/03/26 12:29:20;;;;;;;1.90;1.30;;;;;;;11.77;63.32;99044.63;103910;276;39583;-74
2023/03/26 12:32:07;;;;;;;2.20;1.90;;;;;;;11.81;62.61;99041.06;104047;276;39445;-74
2023/03/26 12:34:42;;;;;;;1.80;1.40;;;;;;;11.77;61.31;99040.40;104108;276;39410;-74
2023/03/26 12:37:39;;;;;;;2.50;1.10;;;;;;;11.75;61.01;99036.17;104055;264;38714;-74
2023/03/26 12:40:33;;;;;;;1.30;1.20;;;;;;;11.75;61.07;99029.58;103949;276;39974;-74
2023/03/26 12:43:21;;;;;;;1.30;0.90;;;;;;;11.77;60.63;99030.83;104150;276;38684;-73
2023/03/26 12:45:59;;;;;;;1.80;1.00;;;;;;;11.81;60.70;99027.59;104073;276;38314;-74
2023/03/26 12:48:34;;;;;;;1.80;1.10;;;;;;;11.88;60.01;99022.81;104101;276;38412;-73